createdAt,value
2023-05-09T00:02:07.915Z,100410.47
2023-05-09T00:04:35.369Z,100416.13
2023-05-09T00:07:03.357Z,100415.97
2023-05-09T00:09:30.580Z,100412.81
2023-05-09T00:11:57.984Z,100400.88
2023-05-09T00:14:25.665Z,100407.19
2023-05-09T00:16:53.714Z,100408.34
2023-05-09T00:19:20.872Z,100406.06
2023-05-09T00:21:48.254Z,100408.19
2023-05-09T00:24:15.492Z,100404.69
2023-05-09T00:26:43.130Z,100414.16
2023-05-09T00:29:10.401Z,100400.72
2023-05-09T00:31:37.930Z,100396.25
2023-05-09T00:34:05.191Z,100397.41
2023-05-09T00:36:32.733Z,100394.28
2023-05-09T00:39:00.277Z,100395.44
2023-05-09T00:41:27.708Z,100390.97
2023-05-09T00:43:54.756Z,100393.94
2023-05-09T00:46:22.765Z,100384.66
2023-05-09T00:48:50.258Z,100385.81
2023-05-09T00:51:18.451Z,100382.66
2023-05-09T00:53:46.201Z,100384.84
2023-05-09T00:56:14.989Z,100384.47
2023-05-09T00:58:42.114Z,100374.72
2023-05-09T01:01:09.903Z,100379.69
2023-05-09T01:03:41.446Z,100377.19
2023-05-09T01:06:24.470Z,100376.53
2023-05-09T01:09:05.961Z,100375.69
2023-05-09T01:12:00.855Z,100378.34
2023-05-09T01:14:52.468Z,100371.22
2023-05-09T01:17:36.871Z,100376.84
2023-05-09T01:20:30.566Z,100372.06
2023-05-09T01:23:27.011Z,100370.72
2023-05-09T01:26:33.316Z,100368.88
2023-05-09T01:29:26.181Z,100366.25
2023-05-09T01:31:56.569Z,100369.06
2023-05-09T01:34:28.911Z,100373.69
2023-05-09T01:37:00.886Z,100366.06
2023-05-09T01:39:32.776Z,100380.66
2023-05-09T01:42:04.534Z,100373.34
2023-05-09T01:44:38.491Z,100369.38
2023-05-09T01:47:07.943Z,100361.41
2023-05-09T01:49:41.100Z,100366.06
2023-05-09T01:52:13.466Z,100364.72
2023-05-09T01:54:41.920Z,100372.13
2023-05-09T01:57:11.920Z,100368.00
2023-05-09T01:59:42.850Z,100375.59
2023-05-09T02:02:11.591Z,100369.97
2023-05-09T02:04:42.519Z,100369.66
2023-05-09T02:07:11.513Z,100376.78
2023-05-09T02:09:39.000Z,100361.50
2023-05-09T02:12:06.897Z,100362.66
2023-05-09T02:14:34.322Z,100357.53
2023-05-09T02:17:06.793Z,100353.09
2023-05-09T02:19:36.070Z,100370.91
2023-05-09T02:22:04.985Z,100361.00
2023-05-09T02:24:34.317Z,100357.00
2023-05-09T02:27:07.155Z,100361.25
2023-05-09T02:29:47.723Z,100360.28
2023-05-09T02:32:20.870Z,100357.81
2023-05-09T02:34:52.270Z,100355.97
2023-05-09T02:37:21.287Z,100350.97
2023-05-09T02:39:48.729Z,100347.97
2023-05-09T02:42:22.719Z,100346.47
2023-05-09T02:44:50.299Z,100351.59
2023-05-09T02:47:17.453Z,100340.22
2023-05-09T02:49:45.236Z,100348.28
2023-05-09T02:52:12.990Z,100346.22
2023-05-09T02:54:40.611Z,100350.66
2023-05-09T02:57:07.813Z,100353.28
2023-05-09T02:59:35.545Z,100350.78
2023-05-09T03:02:05.652Z,100348.28
2023-05-09T03:04:33.404Z,100342.88
2023-05-09T03:07:00.838Z,100343.22
2023-05-09T03:09:32.830Z,100349.66
2023-05-09T03:12:00.780Z,100357.72
2023-05-09T03:14:28.485Z,100357.22
2023-05-09T03:16:55.736Z,100359.53
2023-05-09T03:19:29.554Z,100350.22
2023-05-09T03:21:56.740Z,100352.81
2023-05-09T03:24:28.274Z,100351.13
2023-05-09T03:26:55.678Z,100351.81
2023-05-09T03:29:23.140Z,100351.84
2023-05-09T03:31:50.393Z,100358.44
2023-05-09T03:34:18.121Z,100360.78
2023-05-09T03:36:45.594Z,100350.41
2023-05-09T03:39:15.303Z,100362.00
2023-05-09T03:41:45.701Z,100364.16
2023-05-09T03:44:13.647Z,100364.38
2023-05-09T03:46:40.941Z,100364.88
2023-05-09T03:49:09.066Z,100364.88
2023-05-09T03:51:38.851Z,100369.91
2023-05-09T03:54:11.212Z,100365.44
2023-05-09T03:56:38.728Z,100363.66
2023-05-09T03:59:06.348Z,100358.38
2023-05-09T04:01:35.020Z,100361.72
2023-05-09T04:04:04.106Z,100360.22
2023-05-09T04:06:35.661Z,100362.38
2023-05-09T04:09:06.849Z,100366.53
2023-05-09T04:11:34.653Z,100368.38
2023-05-09T04:14:06.907Z,100367.41
2023-05-09T04:16:36.224Z,100365.09
2023-05-09T04:19:04.552Z,100366.59
2023-05-09T04:21:31.917Z,100367.09
2023-05-09T04:24:01.595Z,100370.09
2023-05-09T04:26:38.984Z,100358.78
2023-05-09T04:29:09.435Z,100359.09
2023-05-09T04:31:36.961Z,100354.94
2023-05-09T04:34:05.346Z,100351.56
2023-05-09T04:36:34.967Z,100353.50
2023-05-09T04:39:02.738Z,100346.66
2023-05-09T04:41:31.089Z,100345.91
2023-05-09T04:43:58.508Z,100339.16
2023-05-09T04:46:27.047Z,100344.38
2023-05-09T04:48:55.490Z,100343.88
2023-05-09T04:51:22.773Z,100347.09
2023-05-09T04:53:52.183Z,100352.53
2023-05-09T04:56:22.679Z,100346.44
2023-05-09T04:58:51.325Z,100353.63
2023-05-09T05:01:19.191Z,100334.16
2023-05-09T05:03:46.844Z,100342.81
2023-05-09T05:06:14.374Z,100338.44
2023-05-09T05:08:43.103Z,100347.22
2023-05-09T05:11:10.538Z,100346.00
2023-05-09T05:13:38.116Z,100336.38
2023-05-09T05:16:06.040Z,100338.91
2023-05-09T05:18:33.608Z,100339.94
2023-05-09T05:21:01.468Z,100332.72
2023-05-09T05:23:29.797Z,100323.41
2023-05-09T05:25:57.128Z,100327.00
2023-05-09T05:28:25.426Z,100331.41
2023-05-09T05:30:53.228Z,100329.13
2023-05-09T05:33:20.784Z,100316.91
2023-05-09T05:35:48.081Z,100318.41
2023-05-09T05:38:15.560Z,100313.31
2023-05-09T05:40:45.614Z,100316.66
2023-05-09T05:43:13.465Z,100308.00
2023-05-09T05:45:41.094Z,100305.91
2023-05-09T05:48:11.484Z,100300.59
2023-05-09T05:50:38.826Z,100307.97
2023-05-09T05:53:06.630Z,100296.72
2023-05-09T05:55:34.180Z,100294.19
2023-05-09T05:58:01.612Z,100288.78
2023-05-09T06:00:29.433Z,100297.31
2023-05-09T06:03:03.322Z,100287.31
2023-05-09T06:05:56.928Z,100286.44
2023-05-09T06:08:24.362Z,100288.78
2023-05-09T06:10:51.661Z,100292.81
2023-05-09T06:13:19.236Z,100289.94
2023-05-09T06:15:57.693Z,100291.63
2023-05-09T06:18:27.258Z,100290.28
2023-05-09T06:20:54.393Z,100286.88
2023-05-09T06:23:22.351Z,100286.06
2023-05-09T06:25:49.572Z,100286.50
2023-05-09T06:28:17.007Z,100279.25
2023-05-09T06:30:44.189Z,100275.03
2023-05-09T06:33:11.708Z,100265.72
2023-05-09T06:35:38.785Z,100269.31
2023-05-09T06:38:06.904Z,100265.97
2023-05-09T06:40:34.107Z,100266.34
2023-05-09T06:43:01.689Z,100261.22
2023-05-09T06:45:30.875Z,100261.94
2023-05-09T06:47:58.451Z,100259.63
2023-05-09T06:50:25.727Z,100256.22
2023-05-09T06:52:53.145Z,100256.13
2023-05-09T06:55:20.321Z,100253.50
2023-05-09T06:57:48.060Z,100252.09
2023-05-09T07:00:16.132Z,100245.41
2023-05-09T07:02:43.740Z,100238.94
2023-05-09T07:05:11.766Z,100242.06
2023-05-09T07:07:39.399Z,100234.03
2023-05-09T07:10:12.052Z,100236.88
2023-05-09T07:12:41.370Z,100229.53
2023-05-09T07:15:09.595Z,100226.00
2023-05-09T07:17:37.003Z,100230.97
2023-05-09T07:20:05.709Z,100218.66
2023-05-09T07:22:35.526Z,100223.31
2023-05-09T07:25:06.406Z,100219.78
2023-05-09T07:27:33.901Z,100215.31
2023-05-09T07:30:01.524Z,100217.03
2023-05-09T07:32:28.965Z,100215.03
2023-05-09T07:34:56.201Z,100208.00
2023-05-09T07:37:23.597Z,100214.09
2023-05-09T07:39:51.553Z,100210.44
2023-05-09T07:42:19.029Z,100213.06
2023-05-09T07:44:46.170Z,100211.03
2023-05-09T07:47:13.580Z,100203.72
2023-05-09T07:49:43.123Z,100199.72
2023-05-09T07:52:10.546Z,100189.59
2023-05-09T07:54:37.851Z,100198.66
2023-05-09T07:57:05.334Z,100194.69
2023-05-09T07:59:32.570Z,100180.94
2023-05-09T08:02:00.057Z,100195.03
2023-05-09T08:04:28.332Z,100189.00
2023-05-09T08:06:55.800Z,100191.59
2023-05-09T08:09:22.945Z,100179.69
2023-05-09T08:11:50.350Z,100177.34
2023-05-09T08:14:17.668Z,100168.94
2023-05-09T08:16:45.087Z,100174.59
2023-05-09T08:19:12.168Z,100167.81
2023-05-09T08:21:39.540Z,100157.25
2023-05-09T08:24:08.087Z,100147.00
2023-05-09T08:26:35.807Z,100157.44
2023-05-09T08:29:03.171Z,100146.00
2023-05-09T08:31:30.998Z,100148.09
2023-05-09T08:33:58.132Z,100153.63
2023-05-09T08:36:25.548Z,100142.25
2023-05-09T08:38:53.128Z,100150.34
2023-05-09T08:41:30.048Z,100140.25
2023-05-09T08:43:57.476Z,100138.09
2023-05-09T08:46:48.876Z,100144.66
2023-05-09T08:49:17.019Z,100138.84
2023-05-09T08:51:46.825Z,100130.03
2023-05-09T08:54:15.361Z,100133.41
2023-05-09T08:56:43.277Z,100127.91
2023-05-09T08:59:11.071Z,100134.31
2023-05-09T09:01:39.137Z,100131.56
2023-05-09T09:04:08.824Z,100134.50
2023-05-09T09:06:37.328Z,100132.13
2023-05-09T09:09:11.442Z,100130.56
2023-05-09T09:11:40.811Z,100129.97
2023-05-09T09:14:22.832Z,100133.38
2023-05-09T09:16:52.905Z,100125.19
2023-05-09T09:19:22.638Z,100124.25
2023-05-09T09:21:55.089Z,100120.13
2023-05-09T09:24:23.315Z,100116.72
2023-05-09T09:26:51.911Z,100110.41
2023-05-09T09:29:20.872Z,100113.56
2023-05-09T09:31:53.978Z,100120.13
2023-05-09T09:34:23.724Z,100111.38
2023-05-09T09:36:51.171Z,100104.97
2023-05-09T09:39:18.382Z,100110.25
2023-05-09T09:41:46.123Z,100107.31
2023-05-09T09:44:15.073Z,100106.25
2023-05-09T09:46:50.778Z,100108.41
2023-05-09T09:49:24.435Z,100098.00
2023-05-09T09:51:59.193Z,100096.56
2023-05-09T09:54:27.644Z,100094.94
2023-05-09T09:56:56.419Z,100095.41
2023-05-09T09:59:26.751Z,100086.38
2023-05-09T10:02:08.202Z,100084.13
2023-05-09T10:04:39.069Z,100092.22
2023-05-09T10:07:12.845Z,100088.44
2023-05-09T10:09:43.840Z,100080.91
2023-05-09T10:12:14.517Z,100080.84
2023-05-09T10:14:43.366Z,100082.53
2023-05-09T10:17:14.712Z,100085.28
2023-05-09T10:19:46.418Z,100079.28
2023-05-09T10:22:17.962Z,100073.84
2023-05-09T10:24:57.631Z,100080.34
2023-05-09T10:27:30.485Z,100069.50
2023-05-09T10:30:24.103Z,100067.88
2023-05-09T10:33:04.741Z,100071.59
2023-05-09T10:35:37.734Z,100061.88
2023-05-09T10:38:06.961Z,100054.69
2023-05-09T10:40:35.274Z,100055.41
2023-05-09T10:43:02.707Z,100047.28
2023-05-09T10:45:30.515Z,100040.44
2023-05-09T10:47:59.073Z,100044.22
2023-05-09T10:50:26.763Z,100034.50
2023-05-09T10:53:07.441Z,100038.38
2023-05-09T10:55:52.946Z,100024.72
2023-05-09T10:58:30.335Z,100024.00
2023-05-09T11:01:00.582Z,100036.34
2023-05-09T11:03:53.011Z,100036.69
2023-05-09T11:06:50.856Z,100033.84
2023-05-09T11:09:30.128Z,100024.63
2023-05-09T11:12:07.197Z,100018.09
2023-05-09T11:14:37.866Z,100014.66
2023-05-09T11:17:23.421Z,100012.47
2023-05-09T11:19:51.238Z,100016.81
2023-05-09T11:22:28.213Z,100008.09
2023-05-09T11:25:07.442Z,100004.22
2023-05-09T11:28:02.244Z,99999.66
2023-05-09T11:30:44.221Z,100012.44
2023-05-09T11:33:46.887Z,99993.88
2023-05-09T11:36:15.518Z,99993.88
2023-05-09T11:38:43.183Z,100003.75
2023-05-09T11:41:11.299Z,100003.28
2023-05-09T11:43:39.751Z,99990.25
2023-05-09T11:46:08.479Z,99986.47
2023-05-09T11:48:40.118Z,99983.66
2023-05-09T11:51:07.640Z,99980.47
2023-05-09T11:53:34.784Z,99978.31
2023-05-09T11:56:04.725Z,99979.38
2023-05-09T11:58:32.294Z,99975.00
2023-05-09T12:01:00.553Z,99959.56
2023-05-09T12:03:28.049Z,99967.88
2023-05-09T12:05:55.956Z,99966.88
2023-05-09T12:08:25.188Z,99956.78
2023-05-09T12:10:52.853Z,99949.91
2023-05-09T12:13:20.009Z,99957.66
2023-05-09T12:15:47.408Z,99953.81
2023-05-09T12:18:17.077Z,99950.06
2023-05-09T12:20:51.036Z,99945.03
2023-05-09T12:23:19.379Z,99941.66
2023-05-09T12:25:55.208Z,99938.69
2023-05-09T12:28:27.104Z,99933.78
2023-05-09T12:30:54.981Z,99940.81
2023-05-09T12:33:22.862Z,99938.47
2023-05-09T12:36:13.665Z,99934.03
2023-05-09T12:38:41.721Z,99925.63
2023-05-09T12:41:22.425Z,99921.00
2023-05-09T12:43:59.121Z,99923.16
2023-05-09T12:46:26.758Z,99933.25
2023-05-09T12:48:54.315Z,99918.97
2023-05-09T12:51:22.628Z,99916.53
2023-05-09T12:53:49.995Z,99915.00
2023-05-09T12:56:20.403Z,99905.94
2023-05-09T12:58:55.565Z,99907.97
2023-05-09T13:01:28.784Z,99910.94
2023-05-09T13:04:05.831Z,99907.50
2023-05-09T13:06:35.722Z,99897.38
2023-05-09T13:09:06.187Z,99894.94
2023-05-09T13:11:33.941Z,99900.44
2023-05-09T13:14:04.002Z,99897.94
2023-05-09T13:16:31.632Z,99890.34
2023-05-09T13:18:58.826Z,99885.94
2023-05-09T13:21:26.270Z,99871.75
2023-05-09T13:23:54.362Z,99872.81
2023-05-09T13:26:22.669Z,99866.19
2023-05-09T13:28:49.930Z,99877.19
2023-05-09T13:31:18.783Z,99867.97
2023-05-09T13:33:46.056Z,99868.88
2023-05-09T13:36:13.398Z,99865.56
2023-05-09T13:38:41.197Z,99874.22
2023-05-09T13:41:09.741Z,99866.34
2023-05-09T13:43:40.832Z,99862.31
2023-05-09T13:46:08.320Z,99867.81
2023-05-09T13:48:35.544Z,99857.53
2023-05-09T13:51:03.740Z,99855.06
2023-05-09T13:53:31.432Z,99851.81
2023-05-09T13:55:58.895Z,99847.88
2023-05-09T13:58:26.201Z,99837.50
2023-05-09T14:00:53.859Z,99830.59
2023-05-09T14:03:22.089Z,99832.56
2023-05-09T14:05:49.610Z,99843.16
2023-05-09T14:08:17.317Z,99844.25
2023-05-09T14:10:44.958Z,99844.50
2023-05-09T14:13:12.666Z,99833.13
2023-05-09T14:15:40.458Z,99819.44
2023-05-09T14:18:07.784Z,99837.72
2023-05-09T14:20:37.173Z,99827.75
2023-05-09T14:23:04.393Z,99822.19
2023-05-09T14:25:31.787Z,99832.56
2023-05-09T14:27:59.447Z,99829.59
2023-05-09T14:30:27.244Z,99833.88
2023-05-09T14:32:54.374Z,99830.09
2023-05-09T14:35:21.753Z,99828.75
2023-05-09T14:37:48.862Z,99829.59
2023-05-09T14:40:16.465Z,99813.31
2023-05-09T14:42:44.258Z,99829.06
2023-05-09T14:45:12.796Z,99830.13
2023-05-09T14:47:41.031Z,99815.69
2023-05-09T14:50:11.352Z,99803.44
2023-05-09T14:52:38.715Z,99811.00
2023-05-09T14:55:07.328Z,99811.34
2023-05-09T14:57:34.567Z,99810.78
2023-05-09T15:00:16.593Z,99807.59
2023-05-09T15:02:47.132Z,99808.31
2023-05-09T15:05:14.637Z,99806.97
2023-05-09T15:07:41.877Z,99794.19
2023-05-09T15:10:10.045Z,99791.09
2023-05-09T15:12:37.645Z,99787.75
2023-05-09T15:15:24.041Z,99789.94
2023-05-09T15:17:53.228Z,99785.56
2023-05-09T15:20:20.862Z,99782.09
2023-05-09T15:22:50.126Z,99775.25
2023-05-09T15:25:18.016Z,99775.41
2023-05-09T15:27:45.146Z,99772.09
2023-05-09T15:30:13.417Z,99774.66
2023-05-09T15:32:41.086Z,99774.28
2023-05-09T15:35:09.145Z,99761.75
2023-05-09T15:37:36.434Z,99764.75
2023-05-09T15:40:04.549Z,99766.50
2023-05-09T15:42:31.667Z,99766.09
2023-05-09T15:44:58.713Z,99756.78
2023-05-09T15:47:26.405Z,99755.47
2023-05-09T15:49:53.562Z,99747.78
2023-05-09T15:52:21.176Z,99747.22
2023-05-09T15:54:48.556Z,99746.38
2023-05-09T15:57:17.597Z,99752.06
2023-05-09T15:59:44.861Z,99741.22
2023-05-09T16:02:12.384Z,99737.97
2023-05-09T16:04:39.682Z,99745.00
2023-05-09T16:07:08.532Z,99734.66
2023-05-09T16:09:35.910Z,99733.09
2023-05-09T16:12:03.393Z,99746.63
2023-05-09T16:14:30.460Z,99736.34
2023-05-09T16:16:57.940Z,99736.63
2023-05-09T16:19:25.042Z,99734.75
2023-05-09T16:21:52.432Z,99745.78
2023-05-09T16:24:19.723Z,99740.72
2023-05-09T16:26:47.252Z,99726.28
2023-05-09T16:29:14.678Z,99731.91
2023-05-09T16:31:45.073Z,99731.69
2023-05-09T16:34:12.825Z,99723.69
2023-05-09T16:36:41.382Z,99723.19
2023-05-09T16:39:09.977Z,99718.25
2023-05-09T16:41:41.224Z,99719.47
2023-05-09T16:44:09.162Z,99717.03
2023-05-09T16:46:37.122Z,99720.06
2023-05-09T16:49:05.355Z,99723.31
2023-05-09T16:51:33.657Z,99718.25
2023-05-09T16:54:01.076Z,99723.69
2023-05-09T16:56:28.736Z,99720.50
2023-05-09T16:58:56.263Z,99710.03
2023-05-09T17:01:24.553Z,99715.09
2023-05-09T17:03:52.124Z,99707.16
2023-05-09T17:06:20.957Z,99707.91
2023-05-09T17:08:49.108Z,99712.19
2023-05-09T17:11:17.097Z,99709.59
2023-05-09T17:13:44.870Z,99715.44
2023-05-09T17:16:13.073Z,99705.88
2023-05-09T17:18:45.902Z,99710.16
2023-05-09T17:21:17.711Z,99703.19
2023-05-09T17:23:45.366Z,99706.97
2023-05-09T17:26:12.911Z,99715.22
2023-05-09T17:28:40.626Z,99698.56
2023-05-09T17:31:08.639Z,99701.34
2023-05-09T17:33:36.229Z,99708.31
2023-05-09T17:36:04.063Z,99713.00
2023-05-09T17:38:31.571Z,99704.91
2023-05-09T17:40:59.218Z,99702.13
2023-05-09T17:43:28.293Z,99703.34
2023-05-09T17:45:55.748Z,99712.38
2023-05-09T17:48:23.103Z,99706.94
2023-05-09T17:50:51.195Z,99702.41
2023-05-09T17:53:18.409Z,99701.28
2023-05-09T17:55:45.998Z,99704.06
2023-05-09T17:58:14.954Z,99701.34
2023-05-09T18:00:42.430Z,99705.00
2023-05-09T18:03:09.912Z,99702.19
2023-05-09T18:05:38.908Z,99695.06
2023-05-09T18:08:06.427Z,99693.34
2023-05-09T18:10:34.220Z,99692.38
2023-05-09T18:13:01.606Z,99698.50
2023-05-09T18:15:28.975Z,99700.66
2023-05-09T18:17:57.601Z,99700.44
2023-05-09T18:20:25.087Z,99696.69
2023-05-09T18:22:53.834Z,99695.09
2023-05-09T18:25:21.504Z,99696.09
2023-05-09T18:27:49.028Z,99702.75
2023-05-09T18:30:18.148Z,99706.81
2023-05-09T18:32:45.510Z,99702.75
2023-05-09T18:35:13.020Z,99703.41
2023-05-09T18:37:40.336Z,99712.59
2023-05-09T18:40:14.735Z,99712.78
2023-05-09T18:42:42.465Z,99710.06
2023-05-09T18:45:11.500Z,99713.97
2023-05-09T18:47:38.897Z,99713.69
2023-05-09T18:50:07.580Z,99716.56
2023-05-09T18:52:34.928Z,99719.59
2023-05-09T18:55:02.629Z,99711.16
2023-05-09T18:57:29.834Z,99716.81
2023-05-09T18:59:57.177Z,99722.19
2023-05-09T19:02:24.403Z,99718.81
2023-05-09T19:04:52.407Z,99727.47
2023-05-09T19:07:19.566Z,99711.44
2023-05-09T19:09:47.019Z,99720.69
2023-05-09T19:12:16.233Z,99721.03
2023-05-09T19:14:43.807Z,99718.84
2023-05-09T19:17:10.964Z,99725.16
2023-05-09T19:19:38.631Z,99729.38
2023-05-09T19:22:06.740Z,99711.75
2023-05-09T19:24:34.274Z,99715.63
2023-05-09T19:27:01.530Z,99712.50
2023-05-09T19:29:29.131Z,99715.75
2023-05-09T19:31:56.688Z,99705.25
2023-05-09T19:34:24.063Z,99699.31
2023-05-09T19:36:51.213Z,99698.94
2023-05-09T19:39:19.362Z,99698.38
2023-05-09T19:41:46.553Z,99698.59
2023-05-09T19:44:14.142Z,99699.69
2023-05-09T19:46:43.068Z,99700.03
2023-05-09T19:49:10.801Z,99702.75
2023-05-09T19:51:38.568Z,99694.47
2023-05-09T19:54:06.553Z,99698.53
2023-05-09T19:56:33.933Z,99701.97
2023-05-09T19:59:02.622Z,99700.25
2023-05-09T20:01:29.904Z,99696.31
2023-05-09T20:03:57.392Z,99692.25
2023-05-09T20:06:25.718Z,99691.53
2023-05-09T20:08:53.198Z,99698.66
2023-05-09T20:11:21.539Z,99689.53
2023-05-09T20:13:48.877Z,99695.38
2023-05-09T20:16:16.143Z,99700.72
2023-05-09T20:18:43.981Z,99689.19
2023-05-09T20:21:11.298Z,99696.44
2023-05-09T20:23:39.655Z,99696.31
2023-05-09T20:26:06.916Z,99692.84
2023-05-09T20:28:34.329Z,99700.28
2023-05-09T20:31:01.515Z,99700.72
2023-05-09T20:33:29.665Z,99700.25
2023-05-09T20:35:56.857Z,99691.63
2023-05-09T20:38:24.249Z,99689.97
2023-05-09T20:40:51.469Z,99697.31
2023-05-09T20:43:19.977Z,99695.06
2023-05-09T20:45:47.313Z,99691.81
2023-05-09T20:48:14.697Z,99696.81
2023-05-09T20:50:41.899Z,99698.19
2023-05-09T20:53:09.317Z,99695.00
2023-05-09T20:55:36.592Z,99690.56
2023-05-09T20:58:03.913Z,99693.38
2023-05-09T21:00:31.200Z,99687.16
2023-05-09T21:02:58.984Z,99686.44
2023-05-09T21:05:26.276Z,99689.41
2023-05-09T21:07:53.713Z,99692.09
2023-05-09T21:10:21.092Z,99688.50
2023-05-09T21:12:48.482Z,99689.38
2023-05-09T21:15:15.862Z,99683.28
2023-05-09T21:17:43.172Z,99681.50
2023-05-09T21:20:10.999Z,99687.88
2023-05-09T21:22:38.427Z,99685.81
2023-05-09T21:25:06.434Z,99690.28
2023-05-09T21:27:33.964Z,99682.53
2023-05-09T21:30:01.214Z,99674.03
2023-05-09T21:32:28.646Z,99683.97
2023-05-09T21:34:55.881Z,99672.53
2023-05-09T21:37:23.297Z,99672.53
2023-05-09T21:39:50.644Z,99682.84
2023-05-09T21:42:18.130Z,99668.09
2023-05-09T21:44:45.465Z,99671.59
2023-05-09T21:47:13.094Z,99670.88
2023-05-09T21:49:41.713Z,99672.53
2023-05-09T21:52:09.102Z,99678.19
2023-05-09T21:54:36.206Z,99671.19
2023-05-09T21:57:03.721Z,99676.78
2023-05-09T21:59:30.920Z,99677.44
2023-05-09T22:01:58.364Z,99680.38
2023-05-09T22:04:25.650Z,99671.78
2023-05-09T22:06:53.035Z,99673.84
2023-05-09T22:09:20.837Z,99677.56
2023-05-09T22:11:48.139Z,99673.69
2023-05-09T22:14:15.290Z,99673.06
2023-05-09T22:16:42.699Z,99677.44
2023-05-09T22:19:10.206Z,99674.38
2023-05-09T22:21:37.771Z,99664.34
2023-05-09T22:24:05.518Z,99672.44
2023-05-09T22:26:33.127Z,99666.44
2023-05-09T22:29:00.564Z,99664.25
2023-05-09T22:31:28.065Z,99663.00
2023-05-09T22:33:55.128Z,99664.72
2023-05-09T22:36:22.524Z,99660.63
2023-05-09T22:38:49.646Z,99657.78
2023-05-09T22:41:17.184Z,99661.91
2023-05-09T22:43:45.021Z,99659.06
2023-05-09T22:46:12.497Z,99652.53
2023-05-09T22:48:39.854Z,99660.75
2023-05-09T22:51:08.825Z,99665.69
2023-05-09T22:53:36.061Z,99663.25
2023-05-09T22:56:04.252Z,99656.31
2023-05-09T22:58:31.502Z,99659.22
2023-05-09T23:00:58.889Z,99660.69
2023-05-09T23:03:26.214Z,99653.28
2023-05-09T23:05:53.727Z,99652.69
2023-05-09T23:08:20.990Z,99656.38
2023-05-09T23:10:48.566Z,99646.94
2023-05-09T23:13:15.806Z,99649.44
2023-05-09T23:15:43.134Z,99648.25
2023-05-09T23:18:10.401Z,99640.00
2023-05-09T23:20:37.735Z,99644.97
2023-05-09T23:23:05.909Z,99651.59
2023-05-09T23:25:33.237Z,99644.41
2023-05-09T23:28:00.466Z,99640.50
2023-05-09T23:30:30.588Z,99644.19
2023-05-09T23:32:57.762Z,99648.34
2023-05-09T23:35:26.655Z,99646.28
2023-05-09T23:37:53.740Z,99637.69
2023-05-09T23:40:21.211Z,99642.22
2023-05-09T23:42:48.354Z,99640.63
2023-05-09T23:45:16.228Z,99636.09
2023-05-09T23:47:43.335Z,99642.91
2023-05-09T23:50:10.888Z,99639.22
2023-05-09T23:52:38.065Z,99632.84
2023-05-09T23:55:06.465Z,99630.44
2023-05-09T23:57:37.643Z,99628.78
